Tropical Cyclones
[Index]
Main Index Home Page Stock Weather Photos Extreme Storms Discussion Storm News and Storm Chasing Reports Tropical Cyclones / Hurricanes / Typhoons Weather Data and Links Wild Fires / Bushfires Weather Observation Techniques Weather Picture Catalogue Tornado Pictures and Reports Stock Video Footage and DVDs for sale
Season 2013-2014 Tropical Cyclone AMARA Track Map
Season 2013-2014 Summaries: [BoM-AU] [JTWC-AU] [JTWC-SIO] [JTWC-SPAC] [JTWC-SH]
<<- Previous TC | JTWC 2013-2014 Season | Next TC ->>

click for intensity scale information  Lat/long Grid: Show Hide

 Date Labels: Show Hide

Joint Typhoon Warning Centre Cyclone Data

Name: AMARA

14 Dec 2013 06:00 UTC to 28 Dec 2013 06:00 UTC

    date/time    lat    long     hPa   cat  kts
2013-12-14 06    9.7    81.6    1004         25          
2013-12-14 12   11.0    82.1    1004         25          
2013-12-14 18   12.9    82.1    1000         30          
2013-12-15 00   14.1    80.6    1000         30          
2013-12-15 06   14.6    78.5    1000         30          
2013-12-15 12   14.1    76.6    1000         30          
2013-12-15 18   14.0    75.6    1000         30          
2013-12-16 00   14.5    74.7    1000         30          
2013-12-16 06   15.2    73.9    1000         30          
2013-12-16 12   15.6    73.2    1000         30          
2013-12-16 18   15.7    72.5     996         35          
2013-12-17 00   15.7    72.1     996         35          
2013-12-17 06   15.7    71.9     993    1    40          
2013-12-17 12   15.8    71.7     989    1    45          
2013-12-17 18   15.9    71.4     985    1    50          
2013-12-17 18   15.9    71.4     985    1    50          
2013-12-18 00   16.0    71.1     974    2    65          
2013-12-18 00   16.0    71.1     974    2    65          
2013-12-18 00   16.0    71.1     974    2    65          
2013-12-18 06   16.1    70.8     967    3    75          
2013-12-18 06   16.1    70.8     967    3    75          
2013-12-18 06   16.1    70.8     967    3    75          
2013-12-18 12   16.3    70.5     956    3    90          
2013-12-18 12   16.3    70.5     956    3    90          
2013-12-18 12   16.3    70.5     956    3    90          
2013-12-18 18   16.8    69.9     948    4   100          
2013-12-18 18   16.8    69.9     948    4   100          
2013-12-18 18   16.8    69.9     948    4   100          
2013-12-19 00   17.0    69.1     937    4   115          
2013-12-19 00   17.0    69.1     937    4   115          
2013-12-19 00   17.0    69.1     937    4   115          
2013-12-19 06   17.3    68.3     937    4   115          
2013-12-19 06   17.3    68.3     937    4   115          
2013-12-19 06   17.3    68.3     937    4   115          
2013-12-19 12   17.8    67.5     941    4   110          
2013-12-19 12   17.8    67.5     941    4   110          
2013-12-19 12   17.8    67.5     941    4   110          
2013-12-19 18   18.0    66.6     941    4   110          
2013-12-19 18   18.0    66.6     941    4   110          
2013-12-19 18   18.0    66.6     941    4   110          
2013-12-20 00   18.2    65.8     937    4   115          
2013-12-20 00   18.2    65.8     937    4   115          
2013-12-20 00   18.2    65.8     937    4   115          
2013-12-20 06   18.3    65.2     937    4   115          
2013-12-20 06   18.3    65.2     937    4   115          
2013-12-20 06   18.3    65.2     937    4   115          
2013-12-20 12   18.7    64.7     937    4   115          
2013-12-20 12   18.7    64.7     937    4   115          
2013-12-20 12   18.7    64.7     937    4   115          
2013-12-20 18   19.1    64.3     937    4   115          
2013-12-20 18   19.1    64.3     937    4   115          
2013-12-20 18   19.1    64.3     937    4   115          
2013-12-21 00   19.7    64.1     929    5   125          
2013-12-21 00   19.7    64.1     929    5   125          
2013-12-21 00   19.7    64.1     929    5   125          
2013-12-21 06   20.1    64.3     926    5   130          
2013-12-21 06   20.1    64.3     926    5   130          
2013-12-21 06   20.1    64.3     926    5   130          
2013-12-21 12   20.7    64.8     926    5   130          
2013-12-21 12   20.7    64.8     926    5   130          
2013-12-21 12   20.7    64.8     926    5   130          
2013-12-21 18   21.2    65.5     929    5   125          
2013-12-21 18   21.2    65.5     929    5   125          
2013-12-21 18   21.2    65.5     929    5   125          
2013-12-22 00   21.7    66.2     937    4   115          
2013-12-22 00   21.7    66.2     937    4   115          
2013-12-22 00   21.7    66.2     937    4   115          
2013-12-22 06   22.1    66.8     948    4   100          
2013-12-22 06   22.1    66.8     948    4   100          
2013-12-22 06   22.1    66.8     948    4   100          
2013-12-22 12   22.5    67.4     974    2    65          
2013-12-22 12   22.5    67.4     974    2    65          
2013-12-22 12   22.5    67.4     974    2    65          
2013-12-22 18   22.7    67.7     982    2    55          
2013-12-22 18   22.7    67.7     982    2    55          
2013-12-23 00   22.9    68.0     985    1    50          
2013-12-23 00   22.9    68.0     985    1    50          
2013-12-23 06   22.9    68.3     993    1    40          
2013-12-23 12   22.7    68.8    1000         30          
2013-12-23 18   22.3    69.4    1004         25          
2013-12-24 00   22.7    70.4    1004         25          
2013-12-24 06   22.9    71.2    1004         25          
2013-12-24 12   22.8    72.0    1004         25          
2013-12-24 18   22.5    72.1    1004         25          
2013-12-25 00   22.3    71.9    1004         25          
2013-12-25 06   22.0    71.5    1004         25          
2013-12-25 12   21.6    70.9    1004         25          
2013-12-25 18   21.0    69.8    1004         25          
2013-12-26 00   20.8    68.3    1004         25          
2013-12-26 06   20.5    67.4    1004         25          
2013-12-26 12   21.0    66.1    1004         25          
2013-12-26 18   21.3    65.3    1004         25          
2013-12-27 00   21.4    64.5    1004         25          
2013-12-27 06   21.7    63.8    1004         25          
2013-12-27 12   21.7    62.5    1007         20          
2013-12-27 18   21.8    61.7    1007         20          
2013-12-28 00   22.1    61.1    1007         20          
2013-12-28 06   22.4    60.0    1007         20          
Winds are 1-min average.

Tropical cyclone tracks developed by Michael Bath using data from the Joint Typhoon Warning Centre Best Tracks and Google Maps.


[Australian Severe Weather index] [Copyright Notice] [Email Contacts] [Search This Site] [Privacy Policy]
Document: tropical_cyclone_amara.htm Updated: 28 June 2017